Flight Track Log - Related Links

Times and Time Zones

All times are in EDT time to prevent confusion due to time zone crossing. See the AAY854 flight status page for this flight to view local times or setup timezone preferences in your user account.

Time Position Orientation Groundspeed Altitude Reporting Facility
EDT Latitude Longitude Course Direction KTS MPH feet Rate Location/Type
Fri 05:13:14 PM 27.8833 -82.6833 180° South 166 191 900  Level Tampa TRACON
Fri 05:13:45 PM 27.8667 -82.6833 180° South 177 204 1,900 1,846 Climbing Tampa TRACON
Fri 05:14:45 PM 27.8500 -82.7500 254° West 246 283 3,700 2,036 Climbing Tampa TRACON
Fri 05:16:33 PM 27.9850 -82.7914 345° North 276 318 7,600 2,185 Climbing Jacksonville Center
Fri 05:17:16 PM 28.0347 -82.7956 356° North 294 338 9,200 1,943 Climbing Miami Center
Fri 05:18:18 PM 28.1211 -82.8042 355° North 306 352 11,000 1,500 Climbing Miami Center
Fri 05:19:20 PM 28.2439 -82.8200 354° North 368 423 12,300 1,839 Climbing Miami Center
Fri 05:20:22 PM 28.3608 -82.8322 355° North 410 472 14,800 2,274 Climbing Miami Center
Fri 05:21:24 PM 28.4764 -82.8428 355° North 412 474 17,000 1,887 Climbing Miami Center
Fri 05:22:26 PM 28.6067 -82.8533 356° North 430 495 18,700 1,728 Climbing Miami Center
Fri 05:23:29 PM 28.7292 -82.8644 355° North 438 504 20,600 1,654 Climbing Miami Center
Fri 05:24:33 PM 28.8511 -82.8711 357° North 431 496 22,200 1,403 Climbing Jacksonville Center
Fri 05:25:33 PM 28.9783 -82.8783 357° North 438 504 23,500 1,300 Climbing Jacksonville Center
Fri 05:26:33 PM 29.1058 -82.8903 355° North 449 517 24,800 1,200 Climbing Jacksonville Center
Fri 05:27:33 PM 29.2311 -82.9283 345° North 455 524 25,900 600 Climbing Jacksonville Center
Fri 05:28:33 PM 29.3564 -82.9689 344° North 461 531 26,000 800 Climbing Jacksonville Center
Fri 05:29:33 PM 29.4814 -83.0094 344° North 466 536 27,500 1,650 Climbing Jacksonville Center
Fri 05:30:33 PM 29.6067 -83.0550 342° North 466 536 29,300 1,250 Climbing Jacksonville Center
Fri 05:31:33 PM 29.7214 -83.1056 339° North 453 521 30,000 350 Climbing Jacksonville Center
Fri 05:32:33 PM 29.8361 -83.1583 338° Northwest 448 516 30,000  Level Jacksonville Center
Fri 05:33:33 PM 29.9531 -83.2139 338° Northwest 448 516 30,000 400 Level Jacksonville Center
Fri 05:34:33 PM 30.0844 -83.2742 338° Northwest 458 527 30,800 900 Climbing Jacksonville Center
Fri 05:35:33 PM 30.2011 -83.3275 338° Northwest 458 527 31,800 600 Climbing Jacksonville Center
Fri 05:36:33 PM 30.3136 -83.3811 338° Northwest 447 514 32,000 100 Climbing Jacksonville Center
Fri 05:37:33 PM 30.4261 -83.4347 338° Northwest 442 509 32,000  Level Jacksonville Center
Fri 05:38:33 PM 30.5386 -83.4883 338° Northwest 437 503 32,000 -50 Level Jacksonville Center
Fri 05:39:33 PM 30.6492 -83.5397 338° Northwest 437 503 31,900  Descending Jacksonville Center
Fri 05:40:33 PM 30.7489 -83.5864 338° Northwest 437 503 32,000 50 Climbing Jacksonville Center
Fri 05:41:33 PM 30.8594 -83.6381 338° Northwest 432 497 32,000  Level Jacksonville Center
Fri 05:42:33 PM 30.9697 -83.6944 336° Northwest 432 497 32,000  Level Jacksonville Center
Fri 05:43:33 PM 31.0822 -83.7464 338° Northwest 432 497 32,000  Level Jacksonville Center
Fri 05:45:16 PM 31.2872 -83.8444 338° Northwest 441 507 32,000  Level Atlanta Center
Fri 05:46:16 PM 31.4022 -83.9028 337° Northwest 436 502 32,000  Level Atlanta Center
Fri 05:47:16 PM 31.5169 -83.9561 338° Northwest 436 502 32,000  Level Atlanta Center
Fri 05:48:16 PM 31.6256 -83.9853 347° North 436 502 32,000  Level Atlanta Center
Fri 05:49:16 PM 31.7528 -84.0119 350° North 441 507 32,000  Level Atlanta Center
Fri 05:50:16 PM 31.8761 -84.0389 349° North 451 519 32,000  Level Atlanta Center
Fri 05:51:16 PM 32.0033 -84.0658 350° North 451 519 32,000  Level Atlanta Center
Fri 05:52:16 PM 32.1244 -84.0928 349° North 446 513 32,000  Level Atlanta Center
Fri 05:53:16 PM 32.2475 -84.1222 349° North 446 513 32,000  Level Atlanta Center
Fri 05:54:16 PM 32.3728 -84.1494 350° North 446 513 32,000  Level Atlanta Center
Fri 05:55:16 PM 32.4958 -84.1767 349° North 446 513 32,000  Level Atlanta Center
Fri 05:56:16 PM 32.6211 -84.2042 350° North 446 513 32,000  Level Atlanta Center
Fri 05:57:16 PM 32.7464 -84.2339 349° North 446 513 32,000  Level Atlanta Center
Fri 05:58:16 PM 32.8694 -84.2614 349° North 446 513 32,000  Level Atlanta Center
Fri 05:59:16 PM 32.9944 -84.2914 349° North 446 513 32,000  Level Atlanta Center
Fri 06:00:16 PM 33.1197 -84.3217 349° North 446 513 32,000  Level Atlanta Center
Fri 06:01:16 PM 33.2408 -84.3517 348° North 446 513 32,000  Level Atlanta Center
Fri 06:02:16 PM 33.3658 -84.3772 350° North 446 513 32,000  Level Atlanta Center
Fri 06:03:16 PM 33.4931 -84.4050 350° North 446 513 32,000  Level Atlanta Center
Fri 06:04:16 PM 33.6142 -84.4353 348° North 446 513 32,000  Level Atlanta Center
Fri 06:05:16 PM 33.7414 -84.4661 349° North 457 526 32,000  Level Atlanta Center
Fri 06:06:16 PM 33.8894 -84.4992 350° North 474 545 32,000  Level Atlanta Center
Fri 06:07:16 PM 34.0103 -84.5325 347° North 460 529 32,000  Level Atlanta Center
Fri 06:08:16 PM 34.1292 -84.5583 350° North 460 529 32,000  Level Atlanta Center
Fri 06:09:16 PM 34.2564 -84.5892 349° North 466 536 32,000  Level Atlanta Center
Fri 06:10:16 PM 34.3858 -84.6050 354° North 466 536 32,000  Level Atlanta Center
Fri 06:11:16 PM 34.5172 -84.6136 357° North 466 536 32,000  Level Atlanta Center
Fri 06:12:16 PM 34.6486 -84.6272 355° North 466 536 32,000  Level Atlanta Center
Fri 06:13:16 PM 34.7819 -84.6381 356° North 471 542 32,000  Level Atlanta Center
Fri 06:14:16 PM 34.9136 -84.6492 356° North 471 542 32,000  Level Atlanta Center
Fri 06:15:16 PM 35.0450 -84.6603 356° North 471 542 32,000  Level Atlanta Center
Fri 06:16:16 PM 35.1764 -84.6714 356° North 471 542 32,000  Level Atlanta Center
Fri 06:17:16 PM 35.3097 -84.6828 356° North 477 549 32,000  Level Atlanta Center
Fri 06:18:16 PM 35.4411 -84.6939 356° North 477 549 32,000  Level Atlanta Center
Fri 06:19:16 PM 35.5767 -84.7053 356° North 477 549 32,000  Level Atlanta Center
Fri 06:21:29 PM 35.8708 -84.7286 356° North 481 554 32,000  Level Indianapolis Center
Fri 06:22:30 PM 36.0303 -84.7431 356° North 487 560 32,000  Level Indianapolis Center
Fri 06:23:32 PM 36.1642 -84.7564 355° North 487 560 32,000  Level Indianapolis Center
Fri 06:24:34 PM 36.2994 -84.7683 356° North 487 560 32,000  Level Indianapolis Center
Fri 06:25:36 PM 36.4344 -84.7808 356° North 487 560 32,000  Level Indianapolis Center
Fri 06:26:38 PM 36.5697 -84.7964 355° North 487 560 32,000  Level Indianapolis Center
Fri 06:27:39 PM 36.7069 -84.8008 359° North 497 572 32,000  Level Indianapolis Center
Fri 06:28:41 PM 36.8464 -84.7881 North 503 579 32,000  Level Indianapolis Center
Fri 06:29:43 PM 37.0147 -84.7714 North 503 579 32,000  Level Indianapolis Center
Fri 06:30:45 PM 37.1514 -84.7608 North 505 581 32,000  Level Indianapolis Center
Fri 06:31:46 PM 37.2858 -84.7864 351° North 493 567 32,000  Level Indianapolis Center
Fri 06:32:48 PM 37.4267 -84.8081 353° North 497 572 32,000  Level Indianapolis Center
Fri 06:33:50 PM 37.5633 -84.8300 353° North 498 573 32,000  Level Indianapolis Center
Fri 06:34:52 PM 37.7225 -84.8569 352° North 496 571 32,000  Level Indianapolis Center
Fri 06:35:53 PM 37.8592 -84.8800 352° North 496 571 32,000  Level Indianapolis Center
Fri 06:36:55 PM 37.9978 -84.9028 353° North 496 571 32,000  Level Indianapolis Center
Fri 06:37:57 PM 38.1356 -84.9258 353° North 496 571 32,000  Level Indianapolis Center
Fri 06:38:59 PM 38.2753 -84.9489 353° North 498 573 32,000  Level Indianapolis Center
Fri 06:40:00 PM 38.4156 -84.9708 353° North 500 575 32,000  Level Indianapolis Center
Fri 06:41:02 PM 38.5544 -84.9925 353° North 500 575 32,000  Level Indianapolis Center
Fri 06:42:04 PM 38.7006 -85.0200 352° North 500 575 32,000 -146 Level Indianapolis Center
Fri 06:43:05 PM 38.8292 -85.0764 341° North 495 570 31,700 -878 Descending Indianapolis Center
Fri 06:44:07 PM 38.9597 -85.1303 342° North 495 570 30,200 -1,645 Descending Indianapolis Center
Fri 06:45:09 PM 39.0883 -85.1836 342° North 492 566 28,300 -1,839 Descending Indianapolis Center
Fri 06:46:11 PM 39.2392 -85.2450 343° North 480 552 26,400 -1,122 Descending Indianapolis Center
Fri 06:47:12 PM 39.3561 -85.2953 342° North 456 525 26,000 -195 Descending Indianapolis Center
Fri 06:48:14 PM 39.4767 -85.3456 342° North 456 525 26,000  Level Indianapolis Center
Fri 06:49:16 PM 39.5961 -85.3953 342° North 456 525 26,000 -390 Level Indianapolis Center
Fri 06:50:17 PM 39.7136 -85.4450 342° North 453 521 25,200 -1,171 Descending Indianapolis Center
Fri 06:51:19 PM 39.8269 -85.4942 342° North 441 507 23,600 -1,500 Descending Indianapolis Center
Fri 06:52:21 PM 39.9567 -85.5597 339° North 426 490 22,100 -780 Descending Indianapolis Center
Fri 06:53:22 PM 40.0542 -85.6314 331° Northwest 409 471 22,000 -49 Descending Indianapolis Center
Fri 06:54:24 PM 40.1514 -85.6997 332° Northwest 405 466 22,000  Level Indianapolis Center
Fri 06:55:26 PM 40.2594 -85.7428 343° North 412 474 22,000  Level Indianapolis Center
Fri 06:56:27 PM 40.3711 -85.7853 344° North 415 478 22,000 -198 Level Indianapolis Center
Fri 06:56:57 PM 40.4375 -85.8100 344° North 419 482 21,700 -1,174 Descending Chicago Center
Fri 06:57:59 PM 40.5467 -85.8519 344° North 415 478 20,200 -1,403 Descending Chicago Center
Fri 06:59:01 PM 40.6533 -85.8942 343° North 407 468 18,800 -1,645 Descending Chicago Center
Fri 07:00:03 PM 40.7692 -85.9394 344° North 396 456 16,800 -1,839 Descending Chicago Center
Fri 07:01:05 PM 40.8725 -85.9814 343° North 392 451 15,000 -1,680 Descending Chicago Center
Fri 07:02:08 PM 40.9681 -86.0200 343° North 364 419 13,300 -1,872 Descending Chicago Center
Fri 07:03:10 PM 41.0625 -86.0561 344° North 356 410 11,100 -1,113 Descending Chicago Center
Fri 07:04:12 PM 41.1556 -86.0903 345° North 349 402 11,000 -48 Descending Chicago Center
Fri 07:05:14 PM 41.2736 -86.1156 351° North 356 410 11,000 -290 Level Chicago Center
Fri 07:06:16 PM 41.3689 -86.1386 350° North 351 404 10,400 -871 Descending Chicago Center
Fri 07:07:18 PM 41.4536 -86.1589 350° North 314 361 9,200 -1,645 Descending Chicago Center
Fri 07:08:20 PM 41.5322 -86.1778 350° North 290 334 7,000 -1,872 Descending Chicago Center
Fri 07:09:23 PM 41.6064 -86.1728 North 277 319 5,300 -1,536 Descending Chicago Center
Fri 07:10:25 PM 41.6722 -86.1544 12° North 251 289 3,800 -1,258 Descending Chicago Center
Fri 07:11:27 PM 41.7142 -86.1825 333° Northwest 211 243 2,700 -968 Descending Chicago Center
Fri 07:12:29 PM 41.7042 -86.2264 253° West 155 178 1,800 -677 Descending Chicago Center
Fri 07:13:31 PM 41.7017 -86.2761 266° West 137 158 1,300 -484 Descending Chicago Center

Login

Don't have an account? Register now (free) for customized features, flight alerts, and more!